Tiempo atmosférico en la estación meteorológica de Figueres, Girona (47 m.)



Fecha
DESCASC
Temp. máxima en grados centígrados (hora)
DESCASC
Temp. mínima en grados centígrados (hora)
DESCASC
Temp. media en grados centígrados
DESCASC
Racha de viento máxima en m/sg (hora)
DESCASC
Velocidad máxima media en intervalos de 10 minutos(hora)
DESCASC
Precipitaciones diarias en mm
DESCASC
Precipitaciones de 00:00 a 06:00 en mm
DESCASC
Precipitaciones de 06:00 a 12:00 en mm
DESCASC
Precipitaciones de 12:00 a 18:00 en mm
DESCASC
Precipitaciones de 18:00 a 24:00 en mm
DESCASC
08-12-2019 16.2 (14:20) 5.1 (08:20) 10.7 3.89 (01:40) 1.94 (01:40) 0 0 0 0 0
07-12-2019 17 (14:50) 5.2 (08:20) 11.1 3.06 (13:40) 1.67 (01:50) 0 0 0 0 0
06-12-2019 16.8 (15:10) 6.8 (23:50) 11.8 5 (05:10) 1.94 (00:10) 0 0 0 0 0
05-12-2019 12.7 (16:20) 9 (00:00) 10.8 10.28 (05:10) 5 (05:10) 11.6 9.8 1.8 0 0
04-12-2019 12.2 (00:10) 9.1 (00:00) 10.7 9.44 (17:30) 5 (23:50) 57.8 0 7 15.8 35
03-12-2019 12.6 (13:50) 8.1 (00:00) 10.4 10.83 (00:50) 5.28 (10:30) 0 0 0 0 0
02-12-2019 15.9 (13:50) 9.8 (00:00) 12.8 13.33 (20:50) 5.83 (17:20) 0 0 0 0 0
01-12-2019 16.1 (14:50) 10.4 (00:00) 13.3 8.06 (03:40) 3.89 (03:40) 0.4 0 0.4 0 0
30-11-2019 17.7 (14:40) 9 (00:00) 13.4 4.72 (22:20) 2.22 (22:30) 0 0 0 0 0
29-11-2019 19.5 (15:10) 9.3 (00:00) 14.4 6.39 (12:10) 2.5 (00:40) 0 0 0 0 0
28-11-2019 18.6 (14:50) 8.6 (00:00) 13.6 8.06 (03:50) 3.33 (03:50) 0 0 0 0 0
27-11-2019 18.9 (13:20) 11.1 (00:00) 15 8.61 (03:10) 5 (03:10) 0 0 0 0 0
26-11-2019 18.2 (14:50) 5.8 (00:00) 12 3.06 (23:20) 1.67 (03:30) 0 0 0 0 0
25-11-2019 19 (15:10) 6.6 (00:00) 12.8 4.17 (16:30) 1.94 (23:20) 0 0 0 0 0
24-11-2019 17.6 (14:40) 7.7 (00:00) 12.7 13.33 (00:30) 6.11 (00:30) 0 0 0 0 0
23-11-2019 17.3 (14:20) 10.6 (00:00) 13.9 14.72 (23:20) 6.67 (23:30) 1.2 1.2 0 0 0
22-11-2019 16.5 (15:30) 4 (00:00) 10.3 8.89 (14:10) 4.72 (14:00) 5.8 0 0.6 0 5.2
21-11-2019 17.1 (14:50) 3.5 (00:00) 10.3 6.67 (14:10) 3.33 (14:10) 0 0 0 0 0
20-11-2019 15.4 (14:50) 1.2 (00:00) 8.3 9.17 (14:30) 4.72 (14:30) 0 0 0 0 0
19-11-2019 14.3 (15:50) 3.2 (00:00) 8.8 10 (07:50) 4.44 (07:50) 0 0 0 0 0
18-11-2019 10.8 (15:00) 5.9 (00:00) 8.4 13.33 (14:30) 6.11 (15:30) 0 0 0 0 0
17-11-2019 13.8 (14:40) 2.9 (00:00) 8.4 4.17 (00:30) 2.22 (14:30) 0 0 0 0 0
16-11-2019 13.2 (14:20) 2.8 (00:00) 8 8.33 (00:10) 3.61 (00:10) 0 0 0 0 0
15-11-2019 11.6 (14:30) 2.9 (00:00) 7.3 8.33 (23:20) 3.89 (20:40) 0 0 0 0 0
14-11-2019 10.8 (09:50) 4.8 (00:00) 7.8 12.5 (13:50) 5.83 (14:20) 4.8 0 1 3.6 0.2
13-11-2019 14.5 (14:20) 6.3 (00:00) 10.4 12.5 (15:10) 5.28 (15:20) 0 0 0 0 0
12-11-2019 18 (14:50) 9.8 (00:00) 13.9 16.67 (03:30) 8.61 (03:00) 0 0 0 0 0

Gráficas

Temp. máximas Temp. mínimas Temp. medias Precipitaciones Rachas de viento máximas Velocidades máximas media en intervalos de 10 minutos

Datos horarios

Fecha y hora oficial Temperatura (ºC) Velocidad del viento (km/h) Dirección del viento Racha (km/h) Dirección de racha Precipitación (mm) Presión (hPa) Tendencia (hPa) Humedad (%)
2019-12-11 23:00:00 6.4 4 Noroeste 11 Norte 0 -- -- 86
2019-12-11 22:00:00 7.9 5 Oeste 9 Oeste 0 -- -- 78
2019-12-11 21:00:00 10.1 3 Norte 17 Norte 0 -- -- 60
2019-12-11 20:00:00 9.7 4 Norte 21 Noroeste 0 -- -- 80
2019-12-11 19:00:00 10.7 10 Noroeste 40 Nordeste 0 -- -- 76
2019-12-11 18:00:00 11.8 18 Nordeste 48 Nordeste 0 -- -- 55
2019-12-11 17:00:00 11.3 8 Norte 41 Nordeste 0 -- -- 71
2019-12-11 16:00:00 12.8 16 Nordeste 37 Nordeste 0 -- -- 64
2019-12-11 15:00:00 12.7 3 Sur 12 Sudeste 0 -- -- 69
2019-12-11 14:00:00 12.4 4 Sudeste 10 Sudeste 0 -- -- 71
2019-12-11 13:00:00 11.8 3 Este 10 Este 0 -- -- 67
2019-12-11 12:00:00 10.7 6 Nordeste 11 Nordeste 0 -- -- 67
2019-12-11 11:00:00 8.3 0 Calma 5 Este 0 -- -- 69
2019-12-11 10:00:00 6.6 0 Calma 8 Este 0 -- -- 76
2019-12-11 09:00:00 4.8 0 Calma 10 Noroeste 0 -- -- 83
2019-12-11 08:00:00 4.3 6 Noroeste 9 Noroeste 0 -- -- 82
2019-12-11 07:00:00 3.7 5 Noroeste 8 Noroeste 0 -- -- 85
2019-12-11 06:00:00 4.1 0 Calma 5 Noroeste 0 -- -- 86
2019-12-11 05:00:00 3.9 2 Norte 5 Noroeste 0 -- -- 86
2019-12-11 04:00:00 3.8 3 Noroeste 4 Noroeste 0 -- -- 84
2019-12-11 03:00:00 4.3 3 Norte 10 Noroeste 0 -- -- 84
2019-12-11 02:00:00 4.8 2 Noroeste 9 Noroeste 0 -- -- 82
2019-12-11 01:00:00 4.7 3 Noroeste 8 Noroeste 0 -- -- 83
2019-12-11 00:00:00 6.2 4 Sudeste 14 Sur 0 -- -- 78
2019-12-10 23:00:00 5.4 5 Noroeste 10 Oeste 0 -- -- 82
2019-12-10 22:00:00 6.2 0 Calma 6 Sudeste 0 -- -- 79
2019-12-10 21:00:00 6.8 2 Noroeste 9 Noroeste 0 -- -- 77
2019-12-10 20:00:00 8.5 4 Norte 12 Noroeste 0 -- -- 69
2019-12-10 19:00:00 10.1 3 Noroeste 7 Noroeste 0 -- -- 65
2019-12-10 18:00:00 12.2 3 Sur 10 Sur 0 -- -- 51
2019-12-10 17:00:00 14.2 4 Sudoeste 10 Oeste 0 -- -- 50
2019-12-10 16:00:00 15.9 5 Sudoeste 16 Nordeste 0 -- -- 45
2019-12-10 15:00:00 16.8 8 Norte 19 Nordeste 0 -- -- 39
2019-12-10 14:00:00 15.9 8 Noroeste 31 Nordeste 0 -- -- 41
2019-12-10 13:00:00 16 13 Nordeste 41 Norte 0 -- -- 35
2019-12-10 12:00:00 15.3 9 Norte 33 Nordeste 0 -- -- 42
2019-12-10 11:00:00 14.4 15 Nordeste 44 Nordeste 0 -- -- 38
2019-12-10 10:00:00 13 15 Norte 41 Nordeste 0 -- -- 45
2019-12-10 09:00:00 11.4 15 Nordeste 37 Nordeste 0 -- -- 51
2019-12-10 08:00:00 10.5 16 Nordeste 46 Nordeste 0 -- -- 55
2019-12-10 07:00:00 10.3 19 Nordeste 47 Nordeste 0 -- -- 58
2019-12-10 06:00:00 10.1 19 Nordeste 60 Norte 0 -- -- 61
2019-12-10 05:00:00 10.1 24 Nordeste 57 Nordeste 0 -- -- 60
2019-12-10 04:00:00 10.4 29 Nordeste 65 Nordeste 0 -- -- 60
2019-12-10 03:00:00 10.5 24 Nordeste 60 Nordeste 0 -- -- 59
2019-12-10 02:00:00 10.6 22 Nordeste 61 Norte 0 -- -- 61
2019-12-10 01:00:00 11 22 Nordeste 63 Norte 0 -- -- 63
2019-12-10 00:00:00 11.1 21 Nordeste 46 Nordeste 0 -- -- 59
2019-12-09 23:00:00 10.7 20 Nordeste 48 Nordeste 0 -- -- 63
2019-12-09 22:00:00 10.6 24 Nordeste 58 Nordeste 0 -- -- 62
2019-12-09 21:00:00 11.4 14 Nordeste 42 Norte 0 -- -- 58
2019-12-09 20:00:00 11 23 Nordeste 51 Nordeste 0 -- -- 65
2019-12-09 19:00:00 11.9 19 Nordeste 48 Nordeste 0 -- -- 60
2019-12-09 18:00:00 12.8 20 Nordeste 45 Nordeste 0 -- -- 53
2019-12-09 17:00:00 13 22 Nordeste 46 Nordeste 0 -- -- 57
2019-12-09 16:00:00 15.5 5 Sudeste 18 Sudoeste 0 -- -- 68
2019-12-09 15:00:00 16 8 Sudoeste 18 Oeste 0 -- -- 66
2019-12-09 14:00:00 16.4 6 Sudoeste 15 Oeste 0 -- -- 62
2019-12-09 13:00:00 15.9 7 Oeste 14 Oeste 0 -- -- 61
2019-12-09 12:00:00 14.6 3 Norte 21 Sudoeste 0 -- -- 67
2019-12-09 11:00:00 12.4 5 Sudoeste 13 Sudoeste 0 -- -- 73
2019-12-09 10:00:00 11.2 6 Noroeste 16 Norte 0 -- -- 74
2019-12-09 09:00:00 9.2 7 Noroeste 15 Oeste 0 -- -- 81
2019-12-09 08:00:00 8 6 Noroeste 15 Noroeste 0 -- -- 84
2019-12-09 07:00:00 8 0 Calma 9 Este 0 -- -- 84
2019-12-09 06:00:00 9.4 6 Nordeste 16 Nordeste 0 -- -- 78
2019-12-09 05:00:00 7.9 4 Este 13 Nordeste 0 -- -- 95
2019-12-09 04:00:00 8.3 0 Calma 10 Norte 0 -- -- 91
2019-12-09 03:00:00 8.2 0 Calma 8 Norte 0 -- -- 95
2019-12-09 02:00:00 9.1 5 Noroeste 8 Noroeste 0 -- -- 95
2019-12-09 01:00:00 9.7 0 Calma 6 Noroeste 0 -- -- 94
2019-12-09 00:00:00 9.9 2 Noroeste 6 Noroeste 0 -- -- 95
2019-12-08 23:00:00 9.5 5 Noroeste 9 Noroeste 0 -- -- 95
2019-12-08 22:00:00 9.4 2 Sur 6 Noroeste 0 -- -- 93
2019-12-08 21:00:00 9.2 4 Noroeste 8 Noroeste 0 -- -- 93
2019-12-08 20:00:00 9.9 2 Noroeste 9 Este 0 -- -- 92
2019-12-08 19:00:00 10.9 4 Noroeste 5 Norte 0 -- -- 90
2019-12-08 18:00:00 12.2 2 Sudoeste 5 Oeste 0 -- -- 87
2019-12-08 17:00:00 13.7 4 Sudoeste 9 Sur 0 -- -- 81
2019-12-08 16:00:00 15.2 4 Sudoeste 7 Sudoeste 0 -- -- 71
2019-12-08 15:00:00 16 4 Sur 9 Oeste 0 -- -- 69
2019-12-08 14:00:00 15.9 3 Sur 9 Sudoeste 0 -- -- 67
2019-12-08 13:00:00 14.9 3 Sudoeste 7 Sudeste 0 -- -- 67
2019-12-08 12:00:00 13 3 Sudeste 6 Este 0 -- -- 74
2019-12-08 11:00:00 12.1 0 Calma 5 Sur 0 -- -- 79
2019-12-08 10:00:00 8.9 3 Oeste 8 Noroeste 0 -- -- 88
2019-12-08 09:00:00 5.8 4 Noroeste 8 Noroeste 0 -- -- 97
2019-12-08 08:00:00 5.4 4 Noroeste 8 Noroeste 0 -- -- 96
2019-12-08 07:00:00 5.7 0 Calma 8 Noroeste 0 -- -- 96
2019-12-08 06:00:00 5.3 4 Norte 7 Norte 0 -- -- 96
2019-12-08 05:00:00 5.8 0 Calma 6 Este 0 -- -- 94
2019-12-08 04:00:00 6.6 2 Norte 6 Nordeste 0 -- -- 94
2019-12-08 03:00:00 6.7 6 Noroeste 13 Noroeste 0 -- -- 93
2019-12-08 02:00:00 7.4 6 Noroeste 14 Noroeste 0 -- -- 92
2019-12-08 01:00:00 7.2 5 Noroeste 9 Noroeste 0 -- -- 93
2019-12-08 00:00:00 7.5 0 Calma 8 Noroeste 0 -- -- 93
2019-12-07 23:00:00 8.3 2 Sudoeste 8 Este 0 -- -- 92
2019-12-07 22:00:00 8.8 0 Calma 8 Noroeste 0 -- -- 91
2019-12-07 21:00:00 9.8 3 Norte 8 Norte 0 -- -- 90
2019-12-07 20:00:00 10.9 0 Calma 5 Noroeste 0 -- -- 87
2019-12-07 19:00:00 11.9 2 Nordeste 9 Nordeste 0 -- -- 85
2019-12-07 18:00:00 12.9 4 Sudeste 8 Sudeste 0 -- -- 82
2019-12-07 17:00:00 14 4 Sudeste 9 Sudeste 0 -- -- 77
2019-12-07 16:00:00 15.8 5 Sur 10 Sur 0 -- -- 67
2019-12-07 15:00:00 16.9 5 Sudoeste 8 Sudeste 0 -- -- 62
2019-12-07 14:00:00 16.5 4 Sur 11 Sur 0 -- -- 65
2019-12-07 13:00:00 16.4 5 Sudeste 10 Sudeste 0 -- -- 64
2019-12-07 12:00:00 15 3 Sudoeste 7 Oeste 0 -- -- 69
2019-12-07 11:00:00 12.8 4 Sudoeste 6 Sudoeste 0 -- -- 77
2019-12-07 10:00:00 9.5 0 Calma 4 Sur 0 -- -- 82
2019-12-07 09:00:00 6.3 0 Calma 5 Norte 0 -- -- 94
2019-12-07 08:00:00 5.3 0 Calma 10 Norte 0 -- -- 94
2019-12-07 07:00:00 5.5 4 Noroeste 7 Noroeste 0 -- -- 94
2019-12-07 06:00:00 5.7 4 Norte 6 Norte 0 -- -- 95
2019-12-07 05:00:00 5.6 0 Calma 7 Norte 0 -- -- 94
2019-12-07 04:00:00 5.9 2 Norte 6 Norte 0 -- -- 93
2019-12-07 03:00:00 6.2 3 Norte 9 Noroeste 0 -- -- 93
2019-12-07 02:00:00 6.1 5 Noroeste 9 Norte 0 -- -- 93
2019-12-07 01:00:00 6.1 0 Calma 4 Noroeste 0 -- -- 93
2019-12-07 00:00:00 6.8 2 Norte 5 Norte 0 -- -- 92
2019-12-06 23:00:00 7 4 Norte 9 Norte 0 -- -- 91
2019-12-06 22:00:00 7.9 3 Noroeste 5 Norte 0 -- -- 90
2019-12-06 21:00:00 8.9 0 Calma 4 Sudoeste 0 -- -- 88
2019-12-06 20:00:00 10.4 0 Calma 5 Noroeste 0 -- -- 85
2019-12-06 19:00:00 11.4 4 Noroeste 8 Noroeste 0 -- -- 81
2019-12-06 18:00:00 12.6 3 Oeste 6 Sudoeste 0 -- -- 75
2019-12-06 17:00:00 13.9 3 Sudoeste 10 Sudoeste 0 -- -- 69
2019-12-06 16:00:00 15.8 6 Sudoeste 10 Sur 0 -- -- 57
2019-12-06 15:00:00 16.6 4 Sudoeste 9 Sudoeste 0 -- -- 47
2019-12-06 14:00:00 16.5 4 Sur 9 Sur 0 -- -- 51
2019-12-06 13:00:00 16.1 3 Sudeste 8 Sudeste 0 -- -- 56
2019-12-06 12:00:00 14.9 5 Sur 7 Sur 0 -- -- 63
2019-12-06 11:00:00 14.1 0 Calma 4 Sudoeste 0 -- -- 63
2019-12-06 10:00:00 11.1 0 Calma 7 Norte 0 -- -- 76
2019-12-06 09:00:00 9.4 4 Noroeste 7 Noroeste 0 -- -- 79
2019-12-06 08:00:00 9.3 0 Calma 5 Nordeste 0 -- -- 81
2019-12-06 07:00:00 10.3 4 Noroeste 8 Noroeste 0 -- -- 77
2019-12-06 06:00:00 11.9 2 Norte 18 Nordeste 0 -- -- 62
2019-12-06 05:00:00 11.5 6 Nordeste 12 Nordeste 0 -- -- 65
2019-12-06 04:00:00 11 2 Norte 9 Noroeste 0 -- -- 71
2019-12-06 03:00:00 10.9 3 Este 7 Este 0 -- -- 71
2019-12-06 02:00:00 11.8 2 Norte 9 Norte 0 -- -- 66
2019-12-06 01:00:00 11.9 3 Norte 17 Nordeste 0 -- -- 64
2019-12-06 00:00:00 12.4 8 Nordeste 16 Nordeste 0 -- -- 60
2019-12-05 23:00:00 12.5 6 Nordeste 16 Nordeste 0 -- -- 62
2019-12-05 22:00:00 11.8 4 Norte 18 Nordeste 0 -- -- 66
2019-12-05 21:00:00 11.9 6 Nordeste 14 Nordeste 0 -- -- 69
2019-12-05 20:00:00 11.5 2 Norte 10 Este 0 -- -- 74
2019-12-05 19:00:00 12.1 4 Este 18 Nordeste 0 -- -- 67
2019-12-05 18:00:00 12.1 10 Nordeste 23 Nordeste 0 -- -- 62
2019-12-05 17:00:00 12.5 5 Nordeste 18 Nordeste 0 -- -- 67
2019-12-05 16:00:00 12.5 8 Nordeste 24 Nordeste 0 -- -- 63
2019-12-05 15:00:00 12.2 7 Este 18 Este 0 -- -- 62
2019-12-05 14:00:00 11.8 6 Este 19 Nordeste 0 -- -- 67
2019-12-05 13:00:00 11.7 5 Nordeste 23 Este 0 -- -- 74
2019-12-05 12:00:00 11.4 10 Nordeste 26 Nordeste 0.2 -- -- 74
2019-12-05 11:00:00 12.1 7 Este 26 Nordeste 0 -- -- 67
2019-12-05 10:00:00 11.5 6 Nordeste 24 Nordeste 0 -- -- 72
2019-12-05 09:00:00 10.6 9 Nordeste 29 Nordeste 0.2 -- -- 80
2019-12-05 08:00:00 10.5 10 Nordeste 32 Nordeste 0.2 -- -- 82
2019-12-05 07:00:00 9.9 10 Nordeste 35 Nordeste 1.2 -- -- 87
2019-12-05 06:00:00 9.6 16 Nordeste 37 Norte 1.4 -- -- 86
2019-12-05 05:00:00 9.3 17 Nordeste 31 Nordeste 0.8 -- -- 87
2019-12-05 04:00:00 9.5 17 Nordeste 31 Nordeste 1.6 -- -- 90
2019-12-05 03:00:00 9.5 13 Nordeste 27 Nordeste 0.8 -- -- 91
2019-12-05 02:00:00 9.4 14 Nordeste 30 Nordeste 1.6 -- -- 93
2019-12-05 01:00:00 9.2 14 Nordeste 34 Nordeste 3.6 -- -- 93
2019-12-05 00:00:00 9.1 15 Nordeste 33 Nordeste 6.6 -- -- 94
2019-12-04 23:00:00 9.3 11 Nordeste 29 Nordeste 6.4 -- -- 95
2019-12-04 22:00:00 9.3 12 Nordeste 26 Nordeste 5.6 -- -- 95
2019-12-04 21:00:00 9.4 13 Nordeste 26 Norte 6.6 -- -- 96
2019-12-04 20:00:00 9.2 10 Nordeste 27 Nordeste 6.8 -- -- 94
2019-12-04 19:00:00 9.4 14 Nordeste 25 Nordeste 3 -- -- 93
2019-12-04 18:00:00 9.6 13 Nordeste 34 Norte 4 -- -- 91
2019-12-04 17:00:00 9.7 14 Nordeste 31 Este 4 -- -- 93
2019-12-04 16:00:00 9.6 16 Nordeste 33 Nordeste 5.2 -- -- 94
2019-12-04 15:00:00 11.2 10 Nordeste 30 Este 2 -- -- 91
2019-12-04 14:00:00 10.5 9 Nordeste 24 Norte 0 -- -- 93
2019-12-04 13:00:00 10 12 Nordeste 29 Nordeste 0.6 -- -- 93
2019-12-04 12:00:00 10 14 Nordeste 27 Norte 0.8 -- -- 93
2019-12-04 11:00:00 10.5 13 Nordeste 27 Nordeste 1.6 -- -- 92
2019-12-04 10:00:00 10.2 13 Nordeste 27 Nordeste 0.6 -- -- 92
2019-12-04 09:00:00 10.2 12 Nordeste 23 Nordeste 1 -- -- 92
2019-12-04 08:00:00 10.1 10 Nordeste 22 Nordeste 3 -- -- 93
2019-12-04 07:00:00 10.8 9 Nordeste 19 Nordeste 0 -- -- 88
2019-12-04 06:00:00 11.1 7 Nordeste 19 Nordeste 0 -- -- 87
2019-12-04 05:00:00 11.2 9 Este 23 Este 0 -- -- 86
2019-12-04 04:00:00 11.5 11 Este 23 Nordeste 0 -- -- 84
2019-12-04 03:00:00 11.1 8 Nordeste 22 Nordeste 0 -- -- 86
2019-12-04 02:00:00 11.2 10 Nordeste 22 Nordeste 0 -- -- 80
2019-12-04 01:00:00 11.8 7 Nordeste 22 Este 0 -- -- 76
2019-12-04 00:00:00 12.1 9 Nordeste 19 Nordeste 0 -- -- 74
2019-12-03 23:00:00 11.9 9 Nordeste 22 Nordeste 0 -- -- 73
2019-12-03 22:00:00 11.6 11 Nordeste 19 Norte 0 -- -- 70
2019-12-03 21:00:00 11 10 Nordeste 19 Nordeste 0 -- -- 67
2019-12-03 20:00:00 10.8 8 Nordeste 21 Norte 0 -- -- 66
2019-12-03 19:00:00 11 5 Nordeste 17 Nordeste 0 -- -- 68
2019-12-03 18:00:00 11.2 6 Este 17 Nordeste 0 -- -- 63
2019-12-03 17:00:00 11.5 8 Nordeste 16 Norte 0 -- -- 61
2019-12-03 16:00:00 11.7 5 Este 13 Este 0 -- -- 63
2019-12-03 15:00:00 12.3 6 Nordeste 21 Nordeste 0 -- -- 55
2019-12-03 14:00:00 12.5 9 Nordeste 18 Nordeste 0 -- -- 51
2019-12-03 13:00:00 11.9 6 Este 24 Nordeste 0 -- -- 56
2019-12-03 12:00:00 11.1 13 Nordeste 30 Nordeste 0 -- -- 57
2019-12-03 11:00:00 10.5 16 Nordeste 35 Nordeste 0 -- -- 59
2019-12-03 10:00:00 9.7 12 Nordeste 31 Nordeste 0 -- -- 64
2019-12-03 09:00:00 8.7 12 Nordeste 30 Norte 0 -- -- 68
2019-12-03 08:00:00 8.2 15 Nordeste 31 Nordeste 0 -- -- 69
2019-12-03 07:00:00 8.5 12 Nordeste 24 Norte 0 -- -- 67
2019-12-03 06:00:00 8.8 11 Nordeste 25 Nordeste 0 -- -- 64
2019-12-03 05:00:00 9.1 8 Norte 31 Nordeste 0 -- -- 62
2019-12-03 04:00:00 9.3 12 Norte 36 Nordeste 0 -- -- 62
2019-12-03 03:00:00 9.5 13 Nordeste 35 Nordeste 0 -- -- 62
2019-12-03 02:00:00 9.3 13 Nordeste 37 Norte 0 -- -- 66
2019-12-03 01:00:00 9.7 16 Nordeste 39 Nordeste 0 -- -- 64
2019-12-03 00:00:00 9.8 17 Nordeste 40 Nordeste 0 -- -- 65
2019-12-02 23:00:00 10 15 Nordeste 45 Nordeste 0 -- -- 65
2019-12-02 22:00:00 10.3 17 Nordeste 46 Nordeste 0 -- -- 64
2019-12-02 21:00:00 10.5 16 Nordeste 48 Nordeste 0 -- -- 64
2019-12-02 20:00:00 10.7 19 Nordeste 44 Nordeste 0 -- -- 63
2019-12-02 19:00:00 11 20 Nordeste 43 Norte 0 -- -- 63
2019-12-02 18:00:00 11.5 19 Nordeste 45 Nordeste 0 -- -- 62
2019-12-02 17:00:00 12.8 16 Nordeste 39 Nordeste 0 -- -- 57
2019-12-02 16:00:00 14.1 15 Nordeste 38 Nordeste 0 -- -- 54
2019-12-02 15:00:00 15.5 14 Nordeste 41 Norte 0 -- -- 49
2019-12-02 14:00:00 15.9 17 Nordeste 40 Nordeste 0 -- -- 48
2019-12-02 13:00:00 15.5 17 Nordeste 44 Nordeste 0 -- -- 48
2019-12-02 12:00:00 14.9 19 Nordeste 44 Norte 0 -- -- 50
2019-12-02 11:00:00 14.2 18 Nordeste 42 Nordeste 0 -- -- 52
2019-12-02 10:00:00 13.7 16 Nordeste 41 Norte 0 -- -- 54
2019-12-02 09:00:00 12.8 15 Nordeste 38 Nordeste 0 -- -- 56
2019-12-02 08:00:00 12.1 15 Nordeste 42 Nordeste 0 -- -- 57
2019-12-02 07:00:00 12.1 14 Nordeste 41 Norte 0 -- -- 58
2019-12-02 06:00:00 12.2 17 Nordeste 48 Nordeste 0 -- -- 58
2019-12-02 05:00:00 12.3 16 Nordeste 39 Norte 0 -- -- 57
2019-12-02 04:00:00 12.2 15 Nordeste 37 Nordeste 0 -- -- 57
2019-12-02 03:00:00 11.2 5 Nordeste 17 Nordeste 0 -- -- 62
2019-12-02 02:00:00 11.2 5 Nordeste 18 Nordeste 0 -- -- 63
2019-12-02 01:00:00 10.7 3 Norte 15 Nordeste 0 -- -- 67
2019-12-02 00:00:00 10.7 6 Nordeste 13 Nordeste 0 -- -- 69
2019-12-01 23:00:00 11.4 6 Nordeste 17 Nordeste 0 -- -- 68
2019-12-01 22:00:00 11 5 Nordeste 13 Nordeste 0 -- -- 76
2019-12-01 21:00:00 10.6 0 Calma 7 Noroeste 0 -- -- 82
2019-12-01 20:00:00 11.6 0 Calma 5 Norte 0 -- -- 79
2019-12-01 19:00:00 12.2 2 Norte 8 Nordeste 0 -- -- 76
2019-12-01 18:00:00 12.9 2 Este 5 Este 0 -- -- 78
2019-12-01 17:00:00 13.7 2 Este 10 Este 0 -- -- 76
2019-12-01 16:00:00 14.6 4 Sudeste 13 Este 0 -- -- 71
2019-12-01 15:00:00 15.9 6 Este 12 Este 0 -- -- 70
2019-12-01 14:00:00 15.2 7 Este 13 Este 0 -- -- 72
2019-12-01 13:00:00 14.4 3 Sudeste 9 Sudeste 0 -- -- 76
2019-12-01 12:00:00 13 3 Este 6 Nordeste 0 -- -- 81
2019-12-01 11:00:00 12.3 2 Nordeste 8 Norte 0 -- -- 87
2019-12-01 10:00:00 11.7 3 Este 8 Nordeste 0 -- -- 91
2019-12-01 09:00:00 11.3 2 Norte 10 Norte 0 -- -- 90
2019-12-01 08:00:00 11.2 2 Norte 6 Norte 0.4 -- -- 87
2019-12-01 07:00:00 11.7 3 Norte 16 Nordeste 0 -- -- 81
2019-12-01 06:00:00 11.8 3 Norte 12 Nordeste 0 -- -- 79
2019-12-01 05:00:00 11.5 5 Este 25 Nordeste 0 -- -- 90
2019-12-01 04:00:00 11.4 11 Nordeste 29 Nordeste 0 -- -- 85
2019-12-01 03:00:00 12.2 4 Norte 8 Norte 0 -- -- 90
2019-12-01 02:00:00 12 0 Calma 6 Noroeste 0 -- -- 91
2019-12-01 01:00:00 11.4 0 Calma 5 Sudoeste 0 -- -- 91
2019-12-01 00:00:00 12.2 2 Este 10 Nordeste 0 -- -- 89
2019-11-30 23:00:00 12.6 6 Nordeste 17 Nordeste 0 -- -- 87
2019-11-30 22:00:00 13.2 4 Norte 10 Norte 0 -- -- 87
2019-11-30 21:00:00 12.7 0 Calma 5 Sur 0 -- -- 86
2019-11-30 20:00:00 12.9 0 Calma 8 Oeste 0 -- -- 84
2019-11-30 19:00:00 14.1 2 Norte 8 Nordeste 0 -- -- 80
2019-11-30 18:00:00 15.1 0 Calma 5 Noroeste 0 -- -- 83
2019-11-30 17:00:00 15.9 3 Este 8 Sur 0 -- -- 79
2019-11-30 16:00:00 16.5 4 Sudeste 12 Este 0 -- -- 79
2019-11-30 15:00:00 17.7 6 Este 11 Este 0 -- -- 69
2019-11-30 14:00:00 17.3 4 Este 10 Sudeste 0 -- -- 70
2019-11-30 13:00:00 16.1 5 Este 12 Sudeste 0 -- -- 76
2019-11-30 12:00:00 15.3 2 Sudeste 8 Este 0 -- -- 77
2019-11-30 11:00:00 13.4 3 Este 7 Este 0 -- -- 81
2019-11-30 10:00:00 10.9 2 Este 4 Sudeste 0 -- -- 88
2019-11-30 09:00:00 9.2 0 Calma 7 Noroeste 0 -- -- 92
2019-11-30 08:00:00 9.1 3 Norte 7 Noroeste 0 -- -- 92
2019-11-30 07:00:00 9.4 5 Noroeste 10 Noroeste 0 -- -- 91
2019-11-30 06:00:00 10.3 3 Noroeste 6 Norte 0 -- -- 90
2019-11-30 05:00:00 11.2 3 Oeste 6 Oeste 0 -- -- 88
2019-11-30 04:00:00 12.1 0 Calma 6 Oeste 0 -- -- 84
2019-11-30 03:00:00 12.7 0 Calma 6 Noroeste 0 -- -- 83
2019-11-30 02:00:00 12.9 4 Noroeste 8 Norte 0 -- -- 83
2019-11-30 01:00:00 13.2 0 Calma 6 Sudoeste 0 -- -- 87
2019-11-30 00:00:00 13.7 0 Calma 5 Noroeste 0 -- -- 84
2019-11-29 23:00:00 13.9 0 Calma 5 Oeste 0 -- -- 83
2019-11-29 22:00:00 14.2 2 Oeste 9 Norte 0 -- -- 80
2019-11-29 21:00:00 14.4 3 Este 7 Nordeste 0 -- -- 80
2019-11-29 20:00:00 14.7 2 Nordeste 6 Este 0 -- -- 80
2019-11-29 19:00:00 15.2 0 Calma 5 Oeste 0 -- -- 75
2019-11-29 18:00:00 15.5 0 Calma 6 Sur 0 -- -- 80
2019-11-29 17:00:00 16.2 4 Sur 8 Sur 0 -- -- 76
2019-11-29 16:00:00 17.5 5 Sudoeste 12 Sudoeste 0 -- -- 64
2019-11-29 15:00:00 19.4 4 Norte 14 Noroeste 0 -- -- 57
2019-11-29 14:00:00 18.2 6 Noroeste 18 Noroeste 0 -- -- 60
2019-11-29 13:00:00 18.5 7 Noroeste 23 Norte 0 -- -- 61
2019-11-29 12:00:00 18.1 7 Norte 22 Norte 0 -- -- 60
2019-11-29 11:00:00 16 4 Este 12 Nordeste 0 -- -- 69
2019-11-29 10:00:00 12.9 4 Nordeste 12 Norte 0 -- -- 81
2019-11-29 09:00:00 9.9 2 Oeste 5 Oeste 0 -- -- 88
2019-11-29 08:00:00 9.4 0 Calma 5 Oeste 0 -- -- 89
2019-11-29 07:00:00 9.4 0 Calma 9 Norte 0 -- -- 88
2019-11-29 06:00:00 9.5 4 Noroeste 8 Oeste 0 -- -- 87
2019-11-29 05:00:00 9.5 0 Calma 12 Noroeste 0 -- -- 87
2019-11-29 04:00:00 9.6 4 Oeste 8 Oeste 0 -- -- 86
2019-11-29 03:00:00 10.7 0 Calma 5 Norte 0 -- -- 84
2019-11-29 02:00:00 12.2 0 Calma 8 Nordeste 0 -- -- 77
2019-11-29 01:00:00 13.5 6 Este 19 Nordeste 0 -- -- 72
2019-11-29 00:00:00 12.8 4 Nordeste 23 Norte 0 -- -- 76
2019-11-28 23:00:00 13.2 8 Nordeste 22 Nordeste 0 -- -- 75
2019-11-28 22:00:00 12.3 3 Norte 9 Norte 0 -- -- 84
2019-11-28 21:00:00 12.5 3 Este 8 Este 0 -- -- 85
2019-11-28 20:00:00 12.4 0 Calma 9 Noroeste 0 -- -- 86
2019-11-28 19:00:00 12.9 2 Noroeste 6 Noroeste 0 -- -- 82
2019-11-28 18:00:00 13.6 2 Norte 4 Sudoeste 0 -- -- 81
2019-11-28 17:00:00 14.7 0 Calma 10 Sudeste 0 -- -- 76
2019-11-28 16:00:00 16.4 5 Sudeste 15 Sudeste 0 -- -- 67
2019-11-28 15:00:00 18.5 4 Sur 14 Sudoeste 0 -- -- 55
2019-11-28 14:00:00 17.9 5 Sudeste 10 Sudeste 0 -- -- 57
2019-11-28 13:00:00 18.4 4 Sudoeste 9 Sur 0 -- -- 55
2019-11-28 12:00:00 17 4 Oeste 10 Oeste 0 -- -- 57
2019-11-28 11:00:00 15 3 Este 7 Noroeste 0 -- -- 67
2019-11-28 10:00:00 12.8 2 Sudoeste 5 Sudeste 0 -- -- 74
2019-11-28 09:00:00 9.7 0 Calma 6 Nordeste 0 -- -- 85
2019-11-28 08:00:00 9.4 2 Sudeste 12 Noroeste 0 -- -- 84
2019-11-28 07:00:00 8.8 6 Noroeste 12 Noroeste 0 -- -- 85
2019-11-28 06:00:00 10.1 4 Noroeste 9 Noroeste 0 -- -- 83
2019-11-28 05:00:00 11.6 5 Noroeste 17 Nordeste 0 -- -- 79
2019-11-28 04:00:00 13.3 12 Nordeste 29 Nordeste 0 -- -- 68
2019-11-28 03:00:00 11.1 0 Calma 8 Norte 0 -- -- 91
2019-11-28 02:00:00 10.9 4 Noroeste 8 Oeste 0 -- -- 91
2019-11-28 01:00:00 11.5 0 Calma 9 Norte 0 -- -- 89
2019-11-28 00:00:00 12.3 4 Noroeste 10 Nordeste 0 -- -- 87
2019-11-27 23:00:00 13.1 3 Noroeste 8 Norte 0 -- -- 86
2019-11-27 22:00:00 13.2 2 Noroeste 9 Noroeste 0 -- -- 85
2019-11-27 21:00:00 13.5 0 Calma 6 Noroeste 0 -- -- 84
2019-11-27 20:00:00 13.9 0 Calma 7 Nordeste 0 -- -- 82
2019-11-27 19:00:00 14.2 3 Este 9 Sudeste 0 -- -- 80
2019-11-27 18:00:00 14.7 4 Este 8 Este 0 -- -- 78
2019-11-27 17:00:00 15.4 5 Sudoeste 11 Sur 0 -- -- 75
2019-11-27 16:00:00 16.1 7 Sudoeste 18 Sudoeste 0 -- -- 73
2019-11-27 15:00:00 17.8 9 Sudoeste 16 Oeste 0 -- -- 67
2019-11-27 14:00:00 18.2 6 Sudoeste 14 Sudoeste 0 -- -- 67
2019-11-27 06:00:00 13.6 0 Calma 11 Sur 0 -- -- 80
2019-11-27 05:00:00 14.3 3 Sudeste 15 Nordeste 0 -- -- 74
2019-11-27 04:00:00 14.9 6 Norte 31 Sudoeste 0 -- -- 73
2019-11-27 03:00:00 15.3 13 Sudoeste 23 Sudoeste 0 -- -- 71
2019-11-27 02:00:00 13.5 6 Sur 13 Sur 0 -- -- 78
2019-11-27 01:00:00 11.2 2 Noroeste 9 Noroeste 0 -- -- 86
2019-11-27 00:00:00 11.3 4 Nordeste 11 Nordeste 0 -- -- 85
2019-11-26 23:00:00 10.7 3 Nordeste 9 Oeste 0 -- -- 88
2019-11-26 22:00:00 10.3 0 Calma 6 Noroeste 0 -- -- 88
2019-11-26 21:00:00 10.2 3 Noroeste 6 Oeste 0 -- -- 88
2019-11-26 20:00:00 11.2 0 Calma 8 Noroeste 0 -- -- 85
2019-11-26 19:00:00 12.1 2 Noroeste 5 Noroeste 0 -- -- 82
2019-11-26 18:00:00 13.2 2 Norte 6 Noroeste 0 -- -- 79
2019-11-26 17:00:00 14.5 3 Sur 8 Sur 0 -- -- 73
2019-11-26 16:00:00 16.4 4 Sudeste 9 Sudeste 0 -- -- 68
2019-11-26 15:00:00 18.2 4 Sur 9 Sudeste 0 -- -- 60
2019-11-26 14:00:00 17.5 3 Sur 8 Sur 0 -- -- 58
2019-11-26 13:00:00 16.2 2 Nordeste 8 Sudoeste 0 -- -- 60
2019-11-26 12:00:00 14 0 Calma 8 Sur 0 -- -- 69
2019-11-26 11:00:00 12.6 2 Sudeste 7 Noroeste 0 -- -- 72
2019-11-26 10:00:00 9.1 3 Oeste 7 Oeste 0 -- -- 86
2019-11-26 09:00:00 6.6 2 Sur 5 Noroeste 0 -- -- 93
2019-11-26 08:00:00 6 0 Calma 9 Noroeste 0 -- -- 94
2019-11-26 07:00:00 5.8 3 Norte 6 Norte 0 -- -- 94
2019-11-26 06:00:00 6 4 Noroeste 6 Noroeste 0 -- -- 93
2019-11-26 05:00:00 6.8 2 Sudoeste 7 Noroeste 0 -- -- 92
2019-11-26 04:00:00 7.1 5 Noroeste 10 Noroeste 0 -- -- 93
2019-11-26 03:00:00 7.3 2 Norte 5 Noroeste 0 -- -- 92
2019-11-26 02:00:00 8.1 0 Calma 4 Noroeste 0 -- -- 91
2019-11-26 01:00:00 8.7 3 Noroeste 6 Noroeste 0 -- -- 89
2019-11-26 00:00:00 9.4 4 Noroeste 13 Noroeste 0 -- -- 87
2019-11-25 23:00:00 9.5 5 Noroeste 10 Noroeste 0 -- -- 87
2019-11-25 22:00:00 10.5 6 Noroeste 13 Oeste 0 -- -- 84
2019-11-25 21:00:00 11.2 6 Noroeste 10 Noroeste 0 -- -- 83
2019-11-25 20:00:00 13.4 4 Noroeste 12 Noroeste 0 -- -- 77
2019-11-25 19:00:00 13.5 4 Norte 10 Noroeste 0 -- -- 77
2019-11-25 18:00:00 14 2 Noroeste 9 Sur 0 -- -- 77
2019-11-25 17:00:00 16.1 4 Sudeste 15 Este 0 -- -- 70
2019-11-25 16:00:00 17.9 3 Sudeste 15 Nordeste 0 -- -- 53
2019-11-25 15:00:00 18.8 3 Sur 10 Sudoeste 0 -- -- 51
2019-11-25 14:00:00 18.1 4 Sudoeste 9 Sudoeste 0 -- -- 53
2019-11-25 13:00:00 16.9 3 Sudoeste 7 Oeste 0 -- -- 58
2019-11-25 12:00:00 14.8 3 Sudoeste 7 Sur 0 -- -- 65
2019-11-25 11:00:00 12.2 2 Este 9 Sur 0 -- -- 75
2019-11-25 10:00:00 10.7 3 Este 6 Sudeste 0 -- -- 79
2019-11-25 09:00:00 7.7 5 Noroeste 10 Oeste 0 -- -- 90
2019-11-25 08:00:00 6.7 3 Noroeste 10 Noroeste 0 -- -- 92
2019-11-25 07:00:00 7 2 Noroeste 11 Noroeste 0 -- -- 93
2019-11-25 06:00:00 7 2 Este 9 Noroeste 0 -- -- 93
2019-11-25 05:00:00 6.7 4 Noroeste 9 Noroeste 0 -- -- 92
2019-11-25 04:00:00 7 2 Sur 5 Noroeste 0 -- -- 92
2019-11-25 03:00:00 7 0 Calma 8 Noroeste 0 -- -- 92
2019-11-25 02:00:00 6.8 3 Oeste 8 Noroeste 0 -- -- 90
2019-11-25 01:00:00 7.1 5 Noroeste 8 Noroeste 0 -- -- 91
2019-11-25 00:00:00 7.7 0 Calma 5 Oeste 0 -- -- 87
2019-11-24 23:00:00 8.5 3 Noroeste 9 Noroeste 0 -- -- 84
2019-11-24 22:00:00 10.2 5 Noroeste 8 Noroeste 0 -- -- 77
2019-11-24 21:00:00 11.7 2 Este 6 Sudeste 0 -- -- 67
2019-11-24 20:00:00 12.7 4 Noroeste 13 Noroeste 0 -- -- 57
2019-11-24 19:00:00 13.3 8 Nordeste 23 Nordeste 0 -- -- 52
2019-11-24 18:00:00 13.8 11 Nordeste 26 Norte 0 -- -- 51
2019-11-24 17:00:00 14.9 12 Nordeste 30 Nordeste 0 -- -- 48
2019-11-24 16:00:00 16.1 13 Nordeste 34 Norte 0 -- -- 49
2019-11-24 15:00:00 17.4 10 Norte 34 Norte 0 -- -- 46
2019-11-24 14:00:00 17.4 16 Nordeste 31 Nordeste 0 -- -- 44
2019-11-24 13:00:00 17.2 14 Nordeste 34 Norte 0 -- -- 46
2019-11-24 12:00:00 16.8 7 Norte 25 Nordeste 0 -- -- 46
2019-11-24 11:00:00 15.2 9 Nordeste 29 Norte 0 -- -- 49
2019-11-24 10:00:00 13 13 Nordeste 28 Nordeste 0 -- -- 54
2019-11-24 09:00:00 11.7 10 Norte 26 Nordeste 0 -- -- 57
2019-11-24 08:00:00 12.1 8 Nordeste 23 Nordeste 0 -- -- 56
2019-11-24 07:00:00 11.8 7 Norte 19 Norte 0 -- -- 58
2019-11-24 06:00:00 12.5 9 Norte 28 Norte 0 -- -- 56
2019-11-24 05:00:00 13.3 13 Norte 46 Nordeste 0 -- -- 51
2019-11-24 04:00:00 13.5 18 Nordeste 44 Nordeste 0 -- -- 50
2019-11-24 03:00:00 14 13 Nordeste 42 Nordeste -- -- -- 45
2019-11-24 02:00:00 13.7 10 Norte 34 Norte 0 -- -- 43
2019-11-24 01:00:00 13.5 17 Nordeste 48 Norte 0 -- -- 47
2019-11-24 00:00:00 13.1 17 Nordeste 53 Nordeste 0 -- -- 54
2019-11-23 23:00:00 13.5 13 Nordeste 30 Norte 0 -- -- 50
2019-11-23 22:00:00 12 4 Norte 12 Norte 0 -- -- 80
2019-11-23 21:00:00 12.1 6 Noroeste 11 Norte 0 -- -- 74
2019-11-23 20:00:00 14 5 Norte 31 Nordeste 0 -- -- 55
2019-11-23 19:00:00 13.9 10 Norte 27 Norte 0 -- -- 55
2019-11-23 18:00:00 13.8 14 Nordeste 30 Nordeste 0 -- -- 60
2019-11-23 17:00:00 14.5 13 Nordeste 29 Nordeste 0 -- -- 65
2019-11-23 16:00:00 15 12 Nordeste 34 Nordeste 0 -- -- 63
2019-11-23 15:00:00 15.3 16 Nordeste 32 Norte 0 -- -- 73
2019-11-23 14:00:00 16.8 5 Sur 15 Sur 0 -- -- 66
2019-11-23 13:00:00 16.5 4 Sudeste 10 Este 0 -- -- 67
2019-11-23 12:00:00 15.4 4 Este 12 Este 0 -- -- 73
2019-11-23 11:00:00 14.8 5 Nordeste 17 Sudoeste 0 -- -- 76
2019-11-23 10:00:00 14.3 7 Sudoeste 17 Oeste 0 -- -- 72
2019-11-23 09:00:00 12 5 Sudoeste 14 Oeste 0 -- -- 82
2019-11-23 08:00:00 10.7 8 Oeste 15 Sudoeste 0 -- -- 86
2019-11-23 07:00:00 11.1 6 Oeste 13 Oeste 0 -- -- 88
2019-11-23 06:00:00 12.5 7 Oeste 14 Oeste 0 -- -- 85
2019-11-23 05:00:00 13.6 9 Oeste 19 Oeste 0 -- -- 93
2019-11-23 04:00:00 14.1 9 Oeste 26 Sudoeste 0.8 -- -- 93
2019-11-23 03:00:00 14.5 5 Sudoeste 18 Sudoeste 0 -- -- 94
2019-11-23 02:00:00 14.5 10 Sudoeste 23 Sudoeste 0.2 -- -- 94
2019-11-23 01:00:00 14.7 14 Sudoeste 33 Sudoeste 0.2 -- -- 90
2019-11-23 00:00:00 14.8 15 Sudoeste 29 Oeste 0.2 -- -- 91
2019-11-22 23:00:00 14.3 9 Sudoeste 21 Oeste 1.8 -- -- 95
2019-11-22 22:00:00 14.1 12 Sudoeste 19 Sudoeste 2.6 -- -- 95
2019-11-22 21:00:00 13.8 7 Sudoeste 15 Sudoeste 0.6 -- -- 93
2019-11-22 20:00:00 14 8 Sudoeste 19 Sudoeste 0 -- -- 87
2019-11-22 19:00:00 14.2 9 Sudoeste 28 Sudoeste 0 -- -- 83
2019-11-22 18:00:00 14.3 10 Sudoeste 20 Sudoeste 0 -- -- 80
2019-11-22 17:00:00 15.1 10 Sudoeste 27 Sudoeste 0 -- -- 76
2019-11-22 16:00:00 16.3 16 Sudoeste 31 Sudoeste 0 -- -- 73
2019-11-22 15:00:00 15.9 16 Sudoeste 32 Oeste 0 -- -- 75
2019-11-22 14:00:00 16.2 17 Sudoeste 31 Oeste 0 -- -- 75
2019-11-22 13:00:00 14.7 15 Sudoeste 27 Sudoeste 0 -- -- 81
2019-11-22 12:00:00 10.8 3 Sur 10 Sur 0.6 -- -- 93
2019-11-22 11:00:00 8.5 3 Sudoeste 6 Sur 0 -- -- 86
2019-11-22 10:00:00 7.1 0 Calma 5 Sudeste 0 -- -- 84
2019-11-22 09:00:00 6.6 0 Calma 7 Noroeste 0 -- -- 85
2019-11-22 08:00:00 5.7 0 Calma 5 Oeste 0 -- -- 87
2019-11-22 07:00:00 4.8 3 Noroeste 6 Sudoeste 0 -- -- 91
2019-11-22 06:00:00 4.7 4 Nordeste 6 Nordeste 0 -- -- 91
2019-11-22 05:00:00 4 2 Sudoeste 8 Sudoeste 0 -- -- 90
2019-11-22 04:00:00 4.6 2 Oeste 8 Oeste 0 -- -- 89
2019-11-22 03:00:00 5.1 3 Norte 9 Noroeste 0 -- -- 88
2019-11-22 02:00:00 5.1 5 Noroeste 7 Oeste 0 -- -- 88
2019-11-22 01:00:00 5.8 0 Calma 6 Norte 0 -- -- 87
2019-11-22 00:00:00 6.1 0 Calma 6 Sur 0 -- -- 87
2019-11-21 23:00:00 7.3 0 Calma 8 Oeste 0 -- -- 82
2019-11-21 22:00:00 8.2 2 Noroeste 6 Noroeste 0 -- -- 78
2019-11-21 21:00:00 9.4 3 Nordeste 8 Noroeste 0 -- -- 74
2019-11-21 20:00:00 10 5 Noroeste 9 Noroeste 0 -- -- 71
2019-11-21 19:00:00 11.2 2 Noroeste 10 Norte 0 -- -- 66
2019-11-21 18:00:00 12.3 3 Sudoeste 7 Sur 0 -- -- 64
2019-11-21 17:00:00 14.4 5 Sudoeste 18 Sudoeste 0 -- -- 60
2019-11-21 16:00:00 16.7 8 Sudoeste 18 Sur 0 -- -- 51
2019-11-21 15:00:00 17 9 Sudoeste 24 Oeste 0 -- -- 50
2019-11-21 14:00:00 16.1 12 Sudoeste 22 Oeste 0 -- -- 52
2019-11-21 13:00:00 14 4 Sudeste 8 Sudeste 0 -- -- 61
2019-11-21 12:00:00 11.7 4 Este 8 Este 0 -- -- 68
2019-11-21 11:00:00 9 3 Este 7 Este 0 -- -- 74
2019-11-21 10:00:00 5.4 2 Sudoeste 7 Sur 0 -- -- 85
2019-11-21 09:00:00 4.9 2 Sur 9 Sudeste 0 -- -- 85
2019-11-21 08:00:00 -- -- -- -- -- -- -- -- --
2019-11-21 07:00:00 -- -- -- -- -- -- -- -- --
2019-11-21 06:00:00 -- -- -- -- -- -- -- -- --
2019-11-21 05:00:00 -- -- -- -- -- -- -- -- --
2019-11-21 04:00:00 -- -- -- -- -- -- -- -- --
2019-11-21 03:00:00 -- -- -- -- -- -- -- -- --
2019-11-21 02:00:00 -- -- -- -- -- -- -- -- --
2019-11-21 01:00:00 -- -- -- -- -- -- -- -- --
2019-11-21 00:00:00 -- -- -- -- -- -- -- -- --
2019-11-20 23:00:00 -- -- -- -- -- -- -- -- --
2019-11-20 22:00:00 9.3 6 Sudoeste 13 Oeste 0 -- -- 80
2019-11-20 21:00:00 10.4 9 Sudoeste 21 Oeste 0 -- -- 76
2019-11-20 20:00:00 10.8 10 Sudoeste 24 Oeste 0 -- -- 75
2019-11-20 19:00:00 10.9 10 Sudoeste 19 Sudoeste 0 -- -- 75
2019-11-20 18:00:00 10.7 7 Sudoeste 19 Sudoeste 0 -- -- 75
2019-11-20 17:00:00 12.2 10 Sudoeste 28 Sudoeste 0 -- -- 65
2019-11-20 16:00:00 14.3 15 Sudoeste 30 Oeste 0 -- -- 58
2019-11-20 15:00:00 15.3 15 Sudoeste 33 Sudoeste 0 -- -- 50
2019-11-20 14:00:00 14.7 14 Sudoeste 25 Sudoeste 0 -- -- 48
2019-11-20 13:00:00 13.2 11 Sudoeste 19 Oeste 0 -- -- 52
2019-11-20 12:00:00 10.2 3 Sudoeste 8 Sudoeste 0 -- -- 64
2019-11-20 11:00:00 8.3 3 Sudoeste 6 Sur 0 -- -- 70
2019-11-20 10:00:00 5.9 0 Calma 5 Sudoeste 0 -- -- 79
2019-11-20 09:00:00 3.1 0 Calma 7 Noroeste 0 -- -- 89
2019-11-20 08:00:00 1.2 4 Noroeste 6 Norte 0 -- -- 93
2019-11-20 07:00:00 1.5 0 Calma 6 Noroeste 0 -- -- 93
2019-11-20 06:00:00 1.5 4 Noroeste 9 Noroeste 0 -- -- 92
2019-11-20 05:00:00 1.8 3 Noroeste 6 Noroeste 0 -- -- 91
2019-11-20 04:00:00 2.4 2 Noroeste 8 Noroeste 0 -- -- 91
2019-11-20 03:00:00 2.8 0 Calma 3 Noroeste 0 -- -- 89
2019-11-20 02:00:00 3.2 2 Norte 6 Noroeste 0 -- -- 87
2019-11-20 01:00:00 3.8 2 Norte 5 Noroeste 0 -- -- 87
2019-11-20 00:00:00 4.4 2 Noroeste 5 Noroeste 0 -- -- 85
2019-11-19 23:00:00 4.8 0 Calma 4 Noroeste -- -- -- 81
2019-11-19 22:00:00 5.3 0 Calma 9 Noroeste 0 -- -- 79
2019-11-19 21:00:00 6.1 5 Noroeste 7 Noroeste 0 -- -- 75
2019-11-19 20:00:00 8.4 0 Calma 7 Norte 0 -- -- 65
2019-11-19 19:00:00 9.3 3 Sudoeste 17 Nordeste 0 -- -- 61
2019-11-19 18:00:00 10.7 9 Nordeste 17 Nordeste 0 -- -- 55
2019-11-19 17:00:00 12 4 Nordeste 15 Norte 0 -- -- 51
2019-11-19 16:00:00 14.2 3 Noroeste 14 Nordeste 0 -- -- 44
2019-11-19 15:00:00 13.7 8 Nordeste 24 Norte 0 -- -- 46
2019-11-19 14:00:00 14 13 Nordeste 27 Norte 0 -- -- 42
2019-11-19 13:00:00 13.6 9 Nordeste 28 Nordeste 0 -- -- 42
2019-11-19 12:00:00 12.8 11 Nordeste 32 Nordeste 0 -- -- 43
2019-11-19 11:00:00 11 11 Nordeste 24 Nordeste 0 -- -- 47
2019-11-19 10:00:00 9.8 6 Norte 19 Nordeste 0 -- -- 48
2019-11-19 09:00:00 6.7 5 Norte 32 Nordeste 0 -- -- 60
2019-11-19 08:00:00 6.7 13 Norte 36 Norte 0 -- -- 59
2019-11-19 07:00:00 5.4 6 Norte 19 Norte 0 -- -- 64
2019-11-19 06:00:00 4.2 5 Noroeste 11 Nordeste 0 -- -- 70
2019-11-19 05:00:00 6.5 6 Norte 21 Nordeste 0 -- -- 62
2019-11-19 04:00:00 6.3 8 Norte 22 Norte 0 -- -- 62
2019-11-19 03:00:00 5.4 3 Noroeste 19 Nordeste 0 -- -- 68
2019-11-19 02:00:00 6.9 4 Nordeste 15 Nordeste 0 -- -- 61
2019-11-19 01:00:00 6.4 5 Sur 19 Norte 0 -- -- 65
2019-11-19 00:00:00 7.5 10 Nordeste 31 Nordeste 0 -- -- 61
2019-11-18 23:00:00 7.7 10 Norte 37 Nordeste 0 -- -- 60
2019-11-18 22:00:00 8 13 Nordeste 41 Nordeste 0 -- -- 59
2019-11-18 21:00:00 8.1 15 Nordeste 36 Nordeste 0 -- -- 59
2019-11-18 20:00:00 8.3 13 Nordeste 32 Nordeste 0 -- -- 59
2019-11-18 19:00:00 8.5 15 Nordeste 35 Nordeste 0 -- -- 57
2019-11-18 18:00:00 8.5 17 Nordeste 42 Nordeste 0 -- -- 58
2019-11-18 17:00:00 9.4 17 Nordeste 40 Nordeste 0 -- -- 56
2019-11-18 16:00:00 10.3 21 Nordeste 44 Nordeste 0 -- -- 54
2019-11-18 15:00:00 10.8 18 Nordeste 48 Nordeste 0 -- -- 54
2019-11-18 14:00:00 10.6 18 Nordeste 42 Nordeste 0 -- -- 56
2019-11-18 13:00:00 10.4 15 Nordeste 41 Nordeste 0 -- -- 61
2019-11-18 12:00:00 10 16 Nordeste 32 Nordeste 0 -- -- 72
2019-11-18 11:00:00 9.9 7 Nordeste 32 Nordeste 0 -- -- 80
2019-11-18 10:00:00 9.3 9 Nordeste 22 Nordeste 0 -- -- 82
2019-11-18 09:00:00 8.9 4 Nordeste 16 Nordeste 0 -- -- 78
2019-11-18 08:00:00 8.8 9 Nordeste 24 Norte 0 -- -- 77
2019-11-18 07:00:00 8 10 Nordeste 20 Nordeste 0 -- -- 83
2019-11-18 06:00:00 7.7 7 Nordeste 18 Nordeste 0 -- -- 85
2019-11-18 05:00:00 8.5 9 Nordeste 21 Nordeste 0 -- -- 82
2019-11-18 04:00:00 8.9 6 Nordeste 19 Nordeste 0 -- -- 80
2019-11-18 03:00:00 9.1 7 Norte 16 Nordeste 0 -- -- 80
2019-11-18 02:00:00 7.8 5 Nordeste 12 Nordeste 0 -- -- 85
2019-11-18 01:00:00 5.9 3 Noroeste 8 Noroeste 0 -- -- 89
2019-11-18 00:00:00 6.6 0 Calma 8 Noroeste 0 -- -- 88
2019-11-17 23:00:00 6.8 3 Noroeste 7 Noroeste 0 -- -- 87
2019-11-17 22:00:00 6.9 0 Calma 7 Noroeste 0 -- -- 87
2019-11-17 21:00:00 7.8 2 Sur 6 Noroeste 0 -- -- 84
2019-11-17 20:00:00 8.8 0 Calma 4 Noroeste 0 -- -- 81
2019-11-17 19:00:00 10.2 0 Calma 5 Este 0 -- -- 75
2019-11-17 18:00:00 10.8 0 Calma 5 Sudeste 0 -- -- 70
2019-11-17 17:00:00 11.3 3 Este 7 Sudeste 0 -- -- 68
2019-11-17 16:00:00 12 3 Sudeste 10 Sudeste 0 -- -- 65
2019-11-17 15:00:00 13.7 5 Sudoeste 15 Sudoeste 0 -- -- 58
2019-11-17 14:00:00 13.3 7 Sudoeste 14 Oeste 0 -- -- 54
2019-11-17 13:00:00 12.1 4 Sudoeste 9 Oeste 0 -- -- 64
2019-11-17 12:00:00 10 3 Oeste 10 Noroeste 0 -- -- 73
2019-11-17 11:00:00 9 4 Oeste 11 Norte 0 -- -- 77
2019-11-17 10:00:00 6 0 Calma 8 Oeste 0 -- -- 87
2019-11-17 09:00:00 4.6 4 Sudoeste 9 Este 0 -- -- 88
2019-11-17 08:00:00 3.1 4 Noroeste 9 Noroeste 0 -- -- 91
2019-11-17 07:00:00 3 4 Noroeste 8 Noroeste 0 -- -- 90
2019-11-17 06:00:00 3.1 2 Norte 8 Noroeste 0 -- -- 91
2019-11-17 05:00:00 3.5 5 Noroeste 8 Norte 0 -- -- 91
2019-11-17 04:00:00 4 3 Sur 15 Oeste 0 -- -- 88
2019-11-17 03:00:00 4.1 3 Oeste 9 Noroeste 0 -- -- 86
2019-11-17 02:00:00 4.5 5 Noroeste 13 Noroeste 0 -- -- 85
2019-11-17 01:00:00 4.8 5 Noroeste 15 Noroeste 0 -- -- 86
2019-11-17 00:00:00 5.8 6 Noroeste 11 Noroeste 0 -- -- 83
2019-11-16 23:00:00 7.6 5 Norte 11 Nordeste 0 -- -- 77
2019-11-16 22:00:00 7.9 3 Norte 17 Nordeste 0 -- -- 77
2019-11-16 21:00:00 8 4 Nordeste 13 Nordeste 0 -- -- 79
2019-11-16 20:00:00 9.2 5 Nordeste 14 Norte 0 -- -- 74
2019-11-16 19:00:00 9.8 3 Nordeste 13 Nordeste 0 -- -- 70
2019-11-16 18:00:00 10.3 3 Este 7 Sudeste 0 -- -- 70
2019-11-16 17:00:00 11.1 4 Sur 13 Sudoeste 0 -- -- 66
2019-11-16 16:00:00 12.5 5 Sur 12 Sudeste 0 -- -- 59
2019-11-16 15:00:00 12.9 6 Sudeste 13 Sur 0 -- -- 55
2019-11-16 14:00:00 12.9 4 Sur 12 Sudoeste 0 -- -- 53
2019-11-16 13:00:00 12.5 6 Sur 11 Sudoeste 0 -- -- 55
2019-11-16 12:00:00 11.5 6 Sur 11 Sur 0 -- -- 58
2019-11-16 11:00:00 10.4 3 Sur 6 Norte 0 -- -- 65
2019-11-16 10:00:00 7.2 0 Calma 6 Sur 0 -- -- 77
2019-11-16 09:00:00 5.4 2 Este 10 Noroeste 0 -- -- 85
2019-11-16 08:00:00 3.2 5 Noroeste 10 Noroeste 0 -- -- 89
2019-11-16 07:00:00 2.9 2 Noroeste 9 Nordeste 0 -- -- 90
2019-11-16 06:00:00 3.2 2 Noroeste 8 Oeste 0 -- -- 90
2019-11-16 05:00:00 3.8 4 Noroeste 9 Norte 0 -- -- 87
2019-11-16 04:00:00 5.7 6 Norte 14 Norte 0 -- -- 79
2019-11-16 03:00:00 4.8 4 Noroeste 13 Oeste 0 -- -- 85
2019-11-16 02:00:00 6.3 5 Norte 14 Nordeste 0 -- -- 77
2019-11-16 01:00:00 6.7 3 Norte 30 Nordeste 0 -- -- 75
2019-11-16 00:00:00 7.4 13 Nordeste 30 Nordeste 0 -- -- 73
2019-11-15 23:00:00 7.5 8 Nordeste 19 Nordeste 0 -- -- 75
2019-11-15 22:00:00 7.9 6 Nordeste 18 Nordeste 0 -- -- 77
2019-11-15 21:00:00 8.7 12 Nordeste 29 Nordeste 0 -- -- 78
2019-11-15 20:00:00 8.8 2 Norte 14 Nordeste 0 -- -- 85
2019-11-15 19:00:00 9.4 2 Este 9 Nordeste 0 -- -- 83
2019-11-15 18:00:00 10.1 2 Este 6 Sudeste 0 -- -- 81
2019-11-15 17:00:00 10.8 4 Sur 14 Sur 0 -- -- 76
2019-11-15 16:00:00 11.5 7 Sudoeste 15 Sudoeste 0 -- -- 74
2019-11-15 15:00:00 11.5 9 Sur 16 Sudoeste 0 -- -- 72
2019-11-15 14:00:00 11.2 7 Sudoeste 15 Sur 0 -- -- 72
2019-11-15 13:00:00 10.4 4 Sudoeste 10 Sudoeste 0 -- -- 72
2019-11-15 12:00:00 9.4 3 Sudoeste 9 Noroeste 0 -- -- 83
2019-11-15 11:00:00 7.9 2 Sudoeste 7 Oeste 0 -- -- 89
2019-11-15 10:00:00 6.3 3 Noroeste 12 Oeste 0 -- -- 92
2019-11-15 09:00:00 5.1 6 Noroeste 10 Noroeste 0 -- -- 95
2019-11-15 08:00:00 3.5 4 Noroeste 6 Noroeste 0 -- -- 96
2019-11-15 07:00:00 3.3 0 Calma 5 Noroeste 0 -- -- 96
2019-11-15 06:00:00 3.2 3 Noroeste 8 Noroeste 0 -- -- 96
2019-11-15 05:00:00 3 3 Noroeste 7 Noroeste 0 -- -- 96
2019-11-15 04:00:00 3 0 Calma 3 Noroeste 0 -- -- 96
2019-11-15 03:00:00 3.1 2 Norte 5 Noroeste 0 -- -- 96
2019-11-15 02:00:00 3.1 0 Calma 10 Noroeste 0 -- -- 94
2019-11-15 01:00:00 4.3 0 Calma 9 Noroeste 0 -- -- 94
2019-11-15 00:00:00 4.8 4 Noroeste 6 Oeste 0 -- -- 94
2019-11-14 23:00:00 5.3 0 Calma 8 Noroeste 0 -- -- 93
2019-11-14 22:00:00 5.9 4 Noroeste 14 Noroeste 0 -- -- 91
2019-11-14 21:00:00 6.8 5 Noroeste 14 Noroeste 0 -- -- 90
2019-11-14 20:00:00 7.3 5 Norte 15 Nordeste 0.2 -- -- 81
2019-11-14 19:00:00 6.8 4 Norte 24 Norte 0 -- -- 86
2019-11-14 18:00:00 6.7 10 Nordeste 31 Este 0.2 -- -- 85
2019-11-14 17:00:00 7 10 Norte 27 Nordeste 0.4 -- -- 85
2019-11-14 16:00:00 7 5 Norte 31 Nordeste 1.2 -- -- 87
2019-11-14 15:00:00 7.1 13 Nordeste 37 Nordeste 1 -- -- 85
2019-11-14 14:00:00 7.2 19 Nordeste 45 Nordeste 0.8 -- -- 84
2019-11-14 13:00:00 8.5 17 Nordeste 36 Nordeste 0 -- -- 79
2019-11-14 12:00:00 9.5 13 Nordeste 32 Nordeste 0 -- -- 72
2019-11-14 11:00:00 9 16 Nordeste 31 Nordeste 1 -- -- 77
2019-11-14 10:00:00 10.7 16 Nordeste 30 Nordeste 0 -- -- 64
2019-11-14 09:00:00 10.2 12 Nordeste 24 Nordeste 0 -- -- 68
2019-11-14 08:00:00 9.2 4 Nordeste 10 Nordeste 0 -- -- 79
2019-11-14 07:00:00 9.5 2 Nordeste 8 Oeste 0 -- -- 78
2019-11-14 06:00:00 8.4 5 Oeste 10 Oeste 0 -- -- 83
2019-11-14 05:00:00 8.4 6 Sudoeste 16 Sudoeste 0 -- -- 85
2019-11-14 04:00:00 7.5 2 Noroeste 9 Noroeste 0 -- -- 85
2019-11-14 03:00:00 7.8 4 Noroeste 10 Noroeste 0 -- -- 82
2019-11-14 02:00:00 8.5 2 Sudoeste 6 Sudoeste 0 -- -- 78
2019-11-14 01:00:00 8.9 2 Sur 7 Norte 0 -- -- 74
2019-11-14 00:00:00 8.9 3 Noroeste 7 Noroeste 0 -- -- 76
2019-11-13 23:00:00 9.8 3 Noroeste 6 Noroeste 0 -- -- 73
2019-11-13 22:00:00 10.4 3 Noroeste 9 Oeste 0 -- -- 67
2019-11-13 21:00:00 11.8 3 Oeste 22 Norte 0 -- -- 53
2019-11-13 20:00:00 12.1 11 Nordeste 21 Norte 0 -- -- 51
2019-11-13 19:00:00 12.1 9 Nordeste 26 Nordeste 0 -- -- 53
2019-11-13 18:00:00 11.9 12 Nordeste 33 Nordeste 0 -- -- 56
2019-11-13 17:00:00 12.4 15 Nordeste 40 Nordeste 0 -- -- 58
2019-11-13 16:00:00 13.3 18 Nordeste 45 Norte 0 -- -- 56
2019-11-13 15:00:00 14.1 14 Nordeste 37 Nordeste 0 -- -- 58
2019-11-13 14:00:00 14.4 14 Nordeste 30 Nordeste 0 -- -- 58
2019-11-13 13:00:00 13.6 11 Nordeste 30 Norte 0 -- -- 62
2019-11-13 12:00:00 13.7 10 Nordeste 33 Nordeste 0 -- -- 62
2019-11-13 11:00:00 11.9 10 Nordeste 29 Nordeste 0 -- -- 65
2019-11-13 10:00:00 12 12 Nordeste 30 Norte 0 -- -- 65
2019-11-13 09:00:00 11.5 14 Nordeste 27 Nordeste 0 -- -- 67
2019-11-13 08:00:00 10.5 12 Nordeste 28 Nordeste 0 -- -- 71
2019-11-13 07:00:00 10 10 Nordeste 23 Nordeste 0 -- -- 74
2019-11-13 06:00:00 9.8 10 Nordeste 26 Norte 0 -- -- 77
2019-11-13 05:00:00 9.8 12 Nordeste 23 Nordeste 0 -- -- 76
2019-11-13 04:00:00 6.3 0 Calma 9 Noroeste 0 -- -- 83
2019-11-13 03:00:00 6.9 3 Noroeste 9 Oeste 0 -- -- 81
2019-11-13 02:00:00 7.1 6 Noroeste 9 Noroeste 0 -- -- 80
2019-11-13 01:00:00 9.6 3 Noroeste 18 Norte 0 -- -- 72
2019-11-13 00:00:00 10.6 7 Norte 19 Norte 0 -- -- 72
2019-11-12 23:00:00 11.7 5 Nordeste 18 Nordeste 0 -- -- 65
2019-11-12 22:00:00 9.8 3 Noroeste 12 Noroeste 0 -- -- 71
2019-11-12 21:00:00 12.1 4 Norte 12 Norte 0 -- -- 59
2019-11-12 20:00:00 12.8 5 Norte 17 Nordeste 0 -- -- 55
2019-11-12 19:00:00 13.5 5 Norte 18 Nordeste 0 -- -- 52
2019-11-12 18:00:00 14.2 4 Noroeste 24 Nordeste 0 -- -- 53
2019-11-12 17:00:00 15.7 16 Nordeste 35 Nordeste 0 -- -- 45
2019-11-12 16:00:00 17.4 5 Norte 14 Norte 0 -- -- 40
2019-11-12 15:00:00 18 6 Noroeste 20 Sudoeste 0 -- -- 37
2019-11-12 14:00:00 17.5 9 Noroeste 29 Nordeste 0 -- -- 38
2019-11-12 13:00:00 17.1 9 Norte 41 Nordeste 0 -- -- 39
2019-11-12 12:00:00 15.9 16 Nordeste 40 Nordeste 0 -- -- 42
2019-11-12 11:00:00 14.9 20 Nordeste 42 Norte 0 -- -- 45
2019-11-12 10:00:00 14 13 Nordeste 40 Nordeste 0 -- -- 45
2019-11-12 09:00:00 12.5 17 Nordeste 51 Norte 0 -- -- 51
2019-11-12 08:00:00 11.6 17 Nordeste 34 Nordeste 0 -- -- 50
2019-11-12 07:00:00 10.8 8 Nordeste 43 Nordeste 0 -- -- 57
2019-11-12 06:00:00 10.9 15 Nordeste 44 Norte 0 -- -- 58
2019-11-12 05:00:00 11 22 Nordeste 57 Nordeste 0 -- -- 59
2019-11-12 04:00:00 11.2 19 Nordeste 60 Nordeste 0 -- -- 57
2019-11-12 03:00:00 11.3 31 Nordeste 58 Nordeste 0 -- -- 56
2019-11-12 02:00:00 11.3 27 Nordeste 55 Nordeste 0 -- -- 59
2019-11-12 01:00:00 10.9 10 Nordeste 42 Este 0 -- -- 63
2019-11-12 00:00:00 11.7 10 Este 46 Nordeste 0 -- -- 56